sensor_id;sensor_type;location;lat;lon;timestamp;P1;durP1;ratioP1;P2;durP2;ratioP2
27213;SDS011;14723;55.814;37.460;2023-02-17T00:01:12;13.90;;;7.15;;
27213;SDS011;14723;55.814;37.460;2023-02-17T00:04:18;14.52;;;8.35;;
27213;SDS011;14723;55.814;37.460;2023-02-17T00:07:23;15.60;;;8.18;;
27213;SDS011;14723;55.814;37.460;2023-02-17T00:10:32;14.13;;;6.90;;
27213;SDS011;14723;55.814;37.460;2023-02-17T00:13:38;11.35;;;6.45;;
27213;SDS011;14723;55.814;37.460;2023-02-17T00:16:46;12.57;;;6.97;;
27213;SDS011;14723;55.814;37.460;2023-02-17T00:19:52;15.55;;;7.10;;
27213;SDS011;14723;55.814;37.460;2023-02-17T00:22:57;15.60;;;7.70;;
27213;SDS011;14723;55.814;37.460;2023-02-17T00:26:03;15.52;;;8.00;;
27213;SDS011;14723;55.814;37.460;2023-02-17T00:29:09;13.38;;;7.45;;
27213;SDS011;14723;55.814;37.460;2023-02-17T00:32:17;15.02;;;7.32;;
27213;SDS011;14723;55.814;37.460;2023-02-17T00:35:23;14.40;;;7.50;;
27213;SDS011;14723;55.814;37.460;2023-02-17T00:38:29;14.48;;;7.72;;
27213;SDS011;14723;55.814;37.460;2023-02-17T00:41:34;14.25;;;7.15;;
27213;SDS011;14723;55.814;37.460;2023-02-17T00:44:40;15.43;;;7.97;;
27213;SDS011;14723;55.814;37.460;2023-02-17T00:47:49;12.57;;;6.95;;
27213;SDS011;14723;55.814;37.460;2023-02-17T00:50:56;13.32;;;7.47;;
27213;SDS011;14723;55.814;37.460;2023-02-17T00:54:02;15.35;;;7.78;;
27213;SDS011;14723;55.814;37.460;2023-02-17T00:57:07;13.07;;;6.93;;
27213;SDS011;14723;55.814;37.460;2023-02-17T01:00:14;14.15;;;7.15;;
27213;SDS011;14723;55.814;37.460;2023-02-17T01:03:23;16.73;;;8.07;;
27213;SDS011;14723;55.814;37.460;2023-02-17T01:06:29;14.35;;;7.13;;
27213;SDS011;14723;55.814;37.460;2023-02-17T01:09:35;15.27;;;7.78;;
27213;SDS011;14723;55.814;37.460;2023-02-17T01:12:40;14.35;;;7.97;;
27213;SDS011;14723;55.814;37.460;2023-02-17T01:15:46;14.75;;;7.85;;
27213;SDS011;14723;55.814;37.460;2023-02-17T01:18:55;17.30;;;7.40;;
27213;SDS011;14723;55.814;37.460;2023-02-17T01:22:00;14.43;;;7.65;;
27213;SDS011;14723;55.814;37.460;2023-02-17T01:25:07;14.23;;;7.03;;
27213;SDS011;14723;55.814;37.460;2023-02-17T01:28:14;12.27;;;7.43;;
27213;SDS011;14723;55.814;37.460;2023-02-17T01:31:21;14.95;;;7.22;;
27213;SDS011;14723;55.814;37.460;2023-02-17T01:34:30;15.52;;;8.13;;
27213;SDS011;14723;55.814;37.460;2023-02-17T01:37:36;16.15;;;8.80;;
27213;SDS011;14723;55.814;37.460;2023-02-17T01:40:45;14.55;;;7.18;;
27213;SDS011;14723;55.814;37.460;2023-02-17T01:44:04;15.80;;;8.15;;
27213;SDS011;14723;55.814;37.460;2023-02-17T01:47:11;16.17;;;7.35;;
27213;SDS011;14723;55.814;37.460;2023-02-17T01:50:19;17.77;;;7.82;;
27213;SDS011;14723;55.814;37.460;2023-02-17T01:53:28;17.02;;;8.00;;
27213;SDS011;14723;55.814;37.460;2023-02-17T01:56:37;15.50;;;8.18;;
27213;SDS011;14723;55.814;37.460;2023-02-17T01:59:44;14.68;;;8.05;;
27213;SDS011;14723;55.814;37.460;2023-02-17T02:02:49;18.17;;;7.75;;
27213;SDS011;14723;55.814;37.460;2023-02-17T02:05:58;16.63;;;8.15;;
27213;SDS011;14723;55.814;37.460;2023-02-17T02:09:07;15.35;;;7.53;;
27213;SDS011;14723;55.814;37.460;2023-02-17T02:12:15;17.30;;;8.75;;
27213;SDS011;14723;55.814;37.460;2023-02-17T02:15:22;17.45;;;8.25;;
27213;SDS011;14723;55.814;37.460;2023-02-17T02:18:34;13.88;;;8.15;;
27213;SDS011;14723;55.814;37.460;2023-02-17T02:25:07;19.83;;;8.95;;
27213;SDS011;14723;55.814;37.460;2023-02-17T02:28:19;17.58;;;8.77;;
27213;SDS011;14723;55.814;37.460;2023-02-17T02:31:28;18.38;;;8.10;;
27213;SDS011;14723;55.814;37.460;2023-02-17T02:34:45;16.60;;;7.97;;
27213;SDS011;14723;55.814;37.460;2023-02-17T02:37:52;14.63;;;7.47;;
27213;SDS011;14723;55.814;37.460;2023-02-17T02:41:01;16.65;;;8.65;;
27213;SDS011;14723;55.814;37.460;2023-02-17T02:44:09;15.93;;;8.20;;
27213;SDS011;14723;55.814;37.460;2023-02-17T02:50:42;17.05;;;6.60;;
27213;SDS011;14723;55.814;37.460;2023-02-17T02:57:19;19.10;;;8.50;;
27213;SDS011;14723;55.814;37.460;2023-02-17T03:00:28;15.13;;;7.32;;
27213;SDS011;14723;55.814;37.460;2023-02-17T03:03:39;13.70;;;7.07;;
27213;SDS011;14723;55.814;37.460;2023-02-17T03:06:51;12.65;;;6.80;;
27213;SDS011;14723;55.814;37.460;2023-02-17T03:09:57;14.95;;;6.70;;
27213;SDS011;14723;55.814;37.460;2023-02-17T03:13:04;14.70;;;7.22;;
27213;SDS011;14723;55.814;37.460;2023-02-17T03:16:11;12.63;;;6.68;;
27213;SDS011;14723;55.814;37.460;2023-02-17T03:19:17;12.43;;;6.65;;
27213;SDS011;14723;55.814;37.460;2023-02-17T03:22:27;16.02;;;7.90;;
27213;SDS011;14723;55.814;37.460;2023-02-17T03:25:34;11.70;;;6.45;;
27213;SDS011;14723;55.814;37.460;2023-02-17T03:28:41;12.32;;;6.63;;
27213;SDS011;14723;55.814;37.460;2023-02-17T03:31:46;15.73;;;7.43;;
27213;SDS011;14723;55.814;37.460;2023-02-17T03:34:52;12.70;;;6.55;;
27213;SDS011;14723;55.814;37.460;2023-02-17T03:38:00;15.30;;;6.88;;
27213;SDS011;14723;55.814;37.460;2023-02-17T03:44:11;12.77;;;6.65;;
27213;SDS011;14723;55.814;37.460;2023-02-17T03:47:16;15.02;;;7.22;;
27213;SDS011;14723;55.814;37.460;2023-02-17T03:50:22;13.52;;;6.95;;
27213;SDS011;14723;55.814;37.460;2023-02-17T03:53:30;12.15;;;6.38;;
27213;SDS011;14723;55.814;37.460;2023-02-17T03:56:35;12.45;;;7.13;;
27213;SDS011;14723;55.814;37.460;2023-02-17T03:59:40;13.05;;;6.45;;
27213;SDS011;14723;55.814;37.460;2023-02-17T04:02:45;12.98;;;6.90;;
27213;SDS011;14723;55.814;37.460;2023-02-17T04:05:51;11.88;;;6.45;;
27213;SDS011;14723;55.814;37.460;2023-02-17T04:08:59;13.45;;;7.70;;
27213;SDS011;14723;55.814;37.460;2023-02-17T04:12:04;16.45;;;7.45;;
27213;SDS011;14723;55.814;37.460;2023-02-17T04:15:10;14.35;;;7.18;;
27213;SDS011;14723;55.814;37.460;2023-02-17T04:18:16;16.67;;;8.15;;
27213;SDS011;14723;55.814;37.460;2023-02-17T04:21:22;15.43;;;7.63;;
27213;SDS011;14723;55.814;37.460;2023-02-17T04:24:30;17.17;;;8.52;;
27213;SDS011;14723;55.814;37.460;2023-02-17T04:27:35;15.68;;;8.00;;
27213;SDS011;14723;55.814;37.460;2023-02-17T04:30:41;19.55;;;8.43;;
27213;SDS011;14723;55.814;37.460;2023-02-17T04:33:47;15.50;;;8.38;;
27213;SDS011;14723;55.814;37.460;2023-02-17T04:36:53;15.60;;;7.88;;
27213;SDS011;14723;55.814;37.460;2023-02-17T04:40:01;17.42;;;9.13;;
27213;SDS011;14723;55.814;37.460;2023-02-17T04:43:11;18.02;;;8.30;;
27213;SDS011;14723;55.814;37.460;2023-02-17T04:46:16;15.45;;;7.93;;
27213;SDS011;14723;55.814;37.460;2023-02-17T04:49:22;15.48;;;7.82;;
27213;SDS011;14723;55.814;37.460;2023-02-17T04:52:27;15.65;;;7.72;;
27213;SDS011;14723;55.814;37.460;2023-02-17T04:55:36;16.17;;;7.65;;
27213;SDS011;14723;55.814;37.460;2023-02-17T04:58:41;14.90;;;7.32;;
27213;SDS011;14723;55.814;37.460;2023-02-17T05:01:47;16.88;;;8.23;;
27213;SDS011;14723;55.814;37.460;2023-02-17T05:04:52;17.55;;;7.38;;
27213;SDS011;14723;55.814;37.460;2023-02-17T05:07:58;14.43;;;7.78;;
27213;SDS011;14723;55.814;37.460;2023-02-17T05:11:06;14.18;;;7.50;;
27213;SDS011;14723;55.814;37.460;2023-02-17T05:14:11;18.17;;;9.20;;
27213;SDS011;14723;55.814;37.460;2023-02-17T05:17:16;15.52;;;8.23;;
27213;SDS011;14723;55.814;37.460;2023-02-17T05:20:22;16.42;;;8.25;;
27213;SDS011;14723;55.814;37.460;2023-02-17T05:23:28;18.35;;;9.50;;
27213;SDS011;14723;55.814;37.460;2023-02-17T05:26:36;18.95;;;9.40;;
27213;SDS011;14723;55.814;37.460;2023-02-17T05:32:46;22.55;;;10.52;;
27213;SDS011;14723;55.814;37.460;2023-02-17T05:35:53;22.23;;;10.07;;
27213;SDS011;14723;55.814;37.460;2023-02-17T05:38:58;25.45;;;10.48;;
27213;SDS011;14723;55.814;37.460;2023-02-17T05:42:06;19.08;;;11.35;;
27213;SDS011;14723;55.814;37.460;2023-02-17T05:45:11;22.30;;;9.88;;
27213;SDS011;14723;55.814;37.460;2023-02-17T05:48:17;20.45;;;9.77;;
27213;SDS011;14723;55.814;37.460;2023-02-17T05:51:22;18.50;;;9.30;;
27213;SDS011;14723;55.814;37.460;2023-02-17T05:54:28;19.45;;;9.88;;
27213;SDS011;14723;55.814;37.460;2023-02-17T05:57:36;18.88;;;9.43;;
27213;SDS011;14723;55.814;37.460;2023-02-17T06:00:41;20.77;;;9.18;;
27213;SDS011;14723;55.814;37.460;2023-02-17T06:03:47;17.40;;;8.50;;
27213;SDS011;14723;55.814;37.460;2023-02-17T06:06:52;19.20;;;9.43;;
27213;SDS011;14723;55.814;37.460;2023-02-17T06:09:58;16.70;;;8.13;;
27213;SDS011;14723;55.814;37.460;2023-02-17T06:13:07;17.40;;;9.20;;
27213;SDS011;14723;55.814;37.460;2023-02-17T06:16:12;20.60;;;8.77;;
27213;SDS011;14723;55.814;37.460;2023-02-17T06:19:18;16.60;;;8.65;;
27213;SDS011;14723;55.814;37.460;2023-02-17T06:22:23;17.13;;;9.10;;
27213;SDS011;14723;55.814;37.460;2023-02-17T06:25:29;18.05;;;9.40;;
27213;SDS011;14723;55.814;37.460;2023-02-17T06:28:36;19.58;;;9.65;;
27213;SDS011;14723;55.814;37.460;2023-02-17T06:31:42;20.70;;;10.07;;
27213;SDS011;14723;55.814;37.460;2023-02-17T06:34:47;25.42;;;11.02;;
27213;SDS011;14723;55.814;37.460;2023-02-17T06:37:53;23.52;;;10.48;;
27213;SDS011;14723;55.814;37.460;2023-02-17T06:40:58;27.30;;;11.75;;
27213;SDS011;14723;55.814;37.460;2023-02-17T06:44:07;20.70;;;10.25;;
27213;SDS011;14723;55.814;37.460;2023-02-17T06:47:12;25.00;;;12.27;;
27213;SDS011;14723;55.814;37.460;2023-02-17T06:50:18;26.45;;;11.02;;
27213;SDS011;14723;55.814;37.460;2023-02-17T06:53:23;26.45;;;12.95;;
27213;SDS011;14723;55.814;37.460;2023-02-17T06:56:29;24.10;;;11.43;;
27213;SDS011;14723;55.814;37.460;2023-02-17T06:59:36;25.45;;;11.70;;
27213;SDS011;14723;55.814;37.460;2023-02-17T07:02:42;22.90;;;11.60;;
27213;SDS011;14723;55.814;37.460;2023-02-17T07:05:48;22.60;;;11.38;;
27213;SDS011;14723;55.814;37.460;2023-02-17T07:08:57;19.63;;;9.93;;
27213;SDS011;14723;55.814;37.460;2023-02-17T07:12:02;21.27;;;11.10;;
27213;SDS011;14723;55.814;37.460;2023-02-17T07:15:10;22.40;;;10.65;;
27213;SDS011;14723;55.814;37.460;2023-02-17T07:18:15;20.63;;;10.52;;
27213;SDS011;14723;55.814;37.460;2023-02-17T07:21:21;23.08;;;10.85;;
27213;SDS011;14723;55.814;37.460;2023-02-17T07:24:27;23.95;;;10.25;;
27213;SDS011;14723;55.814;37.460;2023-02-17T07:27:33;18.85;;;9.85;;
27213;SDS011;14723;55.814;37.460;2023-02-17T07:30:42;17.23;;;9.55;;
27213;SDS011;14723;55.814;37.460;2023-02-17T07:33:47;20.55;;;10.15;;
27213;SDS011;14723;55.814;37.460;2023-02-17T07:36:53;18.17;;;9.40;;
27213;SDS011;14723;55.814;37.460;2023-02-17T07:39:58;18.65;;;9.75;;
27213;SDS011;14723;55.814;37.460;2023-02-17T07:43:05;20.08;;;9.40;;
27213;SDS011;14723;55.814;37.460;2023-02-17T07:46:13;19.83;;;9.40;;
27213;SDS011;14723;55.814;37.460;2023-02-17T07:49:18;19.58;;;9.27;;
27213;SDS011;14723;55.814;37.460;2023-02-17T07:52:24;16.40;;;9.20;;
27213;SDS011;14723;55.814;37.460;2023-02-17T07:55:29;23.23;;;10.48;;
27213;SDS011;14723;55.814;37.460;2023-02-17T07:58:36;18.67;;;9.68;;
27213;SDS011;14723;55.814;37.460;2023-02-17T08:01:44;18.20;;;9.65;;
27213;SDS011;14723;55.814;37.460;2023-02-17T08:04:50;22.83;;;9.68;;
27213;SDS011;14723;55.814;37.460;2023-02-17T08:07:55;20.42;;;11.18;;
27213;SDS011;14723;55.814;37.460;2023-02-17T08:11:14;19.33;;;10.18;;
27213;SDS011;14723;55.814;37.460;2023-02-17T08:17:41;20.63;;;9.50;;
27213;SDS011;14723;55.814;37.460;2023-02-17T08:20:46;20.80;;;9.43;;
27213;SDS011;14723;55.814;37.460;2023-02-17T08:23:52;22.23;;;10.13;;
27213;SDS011;14723;55.814;37.460;2023-02-17T08:26:57;18.58;;;8.80;;
27213;SDS011;14723;55.814;37.460;2023-02-17T08:30:04;17.75;;;8.85;;
27213;SDS011;14723;55.814;37.460;2023-02-17T08:33:12;16.92;;;8.65;;
27213;SDS011;14723;55.814;37.460;2023-02-17T08:36:20;17.88;;;7.75;;
27213;SDS011;14723;55.814;37.460;2023-02-17T08:39:27;17.10;;;8.80;;
27213;SDS011;14723;55.814;37.460;2023-02-17T08:42:33;15.68;;;7.88;;
27213;SDS011;14723;55.814;37.460;2023-02-17T08:45:40;18.83;;;9.18;;
27213;SDS011;14723;55.814;37.460;2023-02-17T08:48:48;15.50;;;7.70;;
27213;SDS011;14723;55.814;37.460;2023-02-17T08:51:54;18.25;;;9.43;;
27213;SDS011;14723;55.814;37.460;2023-02-17T08:54:59;18.15;;;8.52;;
27213;SDS011;14723;55.814;37.460;2023-02-17T08:58:05;15.95;;;8.80;;
27213;SDS011;14723;55.814;37.460;2023-02-17T09:01:10;17.08;;;9.07;;
27213;SDS011;14723;55.814;37.460;2023-02-17T09:04:18;19.20;;;9.45;;
27213;SDS011;14723;55.814;37.460;2023-02-17T09:07:24;17.75;;;8.75;;
27213;SDS011;14723;55.814;37.460;2023-02-17T09:10:30;21.33;;;10.30;;
27213;SDS011;14723;55.814;37.460;2023-02-17T09:13:36;18.77;;;10.02;;
27213;SDS011;14723;55.814;37.460;2023-02-17T09:16:41;21.70;;;9.80;;
27213;SDS011;14723;55.814;37.460;2023-02-17T09:19:49;17.27;;;9.43;;
27213;SDS011;14723;55.814;37.460;2023-02-17T09:22:56;18.52;;;9.70;;
27213;SDS011;14723;55.814;37.460;2023-02-17T09:26:02;16.27;;;8.02;;
27213;SDS011;14723;55.814;37.460;2023-02-17T09:29:09;14.65;;;7.38;;
27213;SDS011;14723;55.814;37.460;2023-02-17T09:32:15;16.15;;;7.80;;
27213;SDS011;14723;55.814;37.460;2023-02-17T09:35:23;15.63;;;7.10;;
27213;SDS011;14723;55.814;37.460;2023-02-17T09:38:29;17.02;;;8.57;;
27213;SDS011;14723;55.814;37.460;2023-02-17T09:41:35;14.98;;;7.72;;
27213;SDS011;14723;55.814;37.460;2023-02-17T09:44:42;17.08;;;9.15;;
27213;SDS011;14723;55.814;37.460;2023-02-17T09:47:49;18.33;;;8.50;;
27213;SDS011;14723;55.814;37.460;2023-02-17T09:50:59;20.15;;;9.25;;
27213;SDS011;14723;55.814;37.460;2023-02-17T09:54:05;19.35;;;9.38;;
27213;SDS011;14723;55.814;37.460;2023-02-17T09:57:13;20.00;;;10.18;;
27213;SDS011;14723;55.814;37.460;2023-02-17T10:00:22;17.75;;;8.70;;
27213;SDS011;14723;55.814;37.460;2023-02-17T10:03:29;18.97;;;9.30;;
27213;SDS011;14723;55.814;37.460;2023-02-17T10:06:40;19.23;;;9.73;;
27213;SDS011;14723;55.814;37.460;2023-02-17T10:09:48;17.98;;;8.93;;
27213;SDS011;14723;55.814;37.460;2023-02-17T10:12:55;20.70;;;9.85;;
27213;SDS011;14723;55.814;37.460;2023-02-17T10:16:02;20.95;;;10.15;;
27213;SDS011;14723;55.814;37.460;2023-02-17T10:19:11;21.10;;;10.40;;
27213;SDS011;14723;55.814;37.460;2023-02-17T10:22:21;21.27;;;10.00;;
27213;SDS011;14723;55.814;37.460;2023-02-17T10:25:32;22.40;;;11.88;;
27213;SDS011;14723;55.814;37.460;2023-02-17T10:28:47;21.17;;;10.20;;
27213;SDS011;14723;55.814;37.460;2023-02-17T10:31:56;19.33;;;10.45;;
27213;SDS011;14723;55.814;37.460;2023-02-17T10:35:13;20.50;;;10.10;;
27213;SDS011;14723;55.814;37.460;2023-02-17T10:38:26;23.77;;;11.20;;
27213;SDS011;14723;55.814;37.460;2023-02-17T10:41:37;22.25;;;10.25;;
27213;SDS011;14723;55.814;37.460;2023-02-17T10:44:44;21.33;;;11.18;;
27213;SDS011;14723;55.814;37.460;2023-02-17T10:47:50;20.70;;;10.70;;
27213;SDS011;14723;55.814;37.460;2023-02-17T10:50:59;24.13;;;11.23;;
27213;SDS011;14723;55.814;37.460;2023-02-17T10:54:15;23.55;;;11.57;;
27213;SDS011;14723;55.814;37.460;2023-02-17T10:57:27;23.58;;;11.00;;
27213;SDS011;14723;55.814;37.460;2023-02-17T11:00:34;23.77;;;11.95;;
27213;SDS011;14723;55.814;37.460;2023-02-17T11:03:39;26.35;;;11.70;;
27213;SDS011;14723;55.814;37.460;2023-02-17T11:06:47;22.85;;;11.65;;
27213;SDS011;14723;55.814;37.460;2023-02-17T11:09:56;23.08;;;11.45;;
27213;SDS011;14723;55.814;37.460;2023-02-17T11:13:05;26.52;;;11.43;;
27213;SDS011;14723;55.814;37.460;2023-02-17T11:16:24;26.90;;;12.70;;
27213;SDS011;14723;55.814;37.460;2023-02-17T11:19:31;28.67;;;12.57;;
27213;SDS011;14723;55.814;37.460;2023-02-17T11:22:38;28.60;;;12.48;;
27213;SDS011;14723;55.814;37.460;2023-02-17T11:25:56;28.90;;;11.82;;
27213;SDS011;14723;55.814;37.460;2023-02-17T11:29:08;29.63;;;13.02;;
27213;SDS011;14723;55.814;37.460;2023-02-17T11:32:14;27.13;;;12.02;;
27213;SDS011;14723;55.814;37.460;2023-02-17T11:35:22;26.40;;;12.32;;
27213;SDS011;14723;55.814;37.460;2023-02-17T11:38:32;22.33;;;12.67;;
27213;SDS011;14723;55.814;37.460;2023-02-17T11:41:40;32.67;;;14.18;;
27213;SDS011;14723;55.814;37.460;2023-02-17T11:44:46;24.52;;;12.45;;
27213;SDS011;14723;55.814;37.460;2023-02-17T11:47:54;25.05;;;11.88;;
27213;SDS011;14723;55.814;37.460;2023-02-17T11:51:07;26.60;;;13.15;;
27213;SDS011;14723;55.814;37.460;2023-02-17T11:57:27;28.77;;;12.20;;
27213;SDS011;14723;55.814;37.460;2023-02-17T12:00:39;30.55;;;13.60;;
27213;SDS011;14723;55.814;37.460;2023-02-17T12:04:01;30.95;;;13.50;;
27213;SDS011;14723;55.814;37.460;2023-02-17T12:10:22;28.35;;;13.70;;
27213;SDS011;14723;55.814;37.460;2023-02-17T12:13:34;28.38;;;12.82;;
27213;SDS011;14723;55.814;37.460;2023-02-17T12:16:45;32.63;;;14.15;;
27213;SDS011;14723;55.814;37.460;2023-02-17T12:19:53;31.13;;;14.35;;
27213;SDS011;14723;55.814;37.460;2023-02-17T12:23:07;28.67;;;13.93;;
27213;SDS011;14723;55.814;37.460;2023-02-17T12:26:15;32.80;;;15.05;;
27213;SDS011;14723;55.814;37.460;2023-02-17T12:29:29;31.70;;;15.00;;
27213;SDS011;14723;55.814;37.460;2023-02-17T12:32:46;32.15;;;15.38;;
27213;SDS011;14723;55.814;37.460;2023-02-17T12:35:55;30.27;;;15.20;;
27213;SDS011;14723;55.814;37.460;2023-02-17T12:39:02;33.75;;;15.98;;
27213;SDS011;14723;55.814;37.460;2023-02-17T12:42:16;39.90;;;16.88;;
27213;SDS011;14723;55.814;37.460;2023-02-17T12:45:26;33.95;;;16.20;;
27213;SDS011;14723;55.814;37.460;2023-02-17T12:48:35;35.30;;;15.88;;
27213;SDS011;14723;55.814;37.460;2023-02-17T12:51:43;38.28;;;16.70;;
27213;SDS011;14723;55.814;37.460;2023-02-17T12:54:50;36.63;;;16.20;;
27213;SDS011;14723;55.814;37.460;2023-02-17T12:57:58;37.95;;;17.08;;
27213;SDS011;14723;55.814;37.460;2023-02-17T13:01:08;34.58;;;15.30;;
27213;SDS011;14723;55.814;37.460;2023-02-17T13:04:16;36.47;;;16.90;;
27213;SDS011;14723;55.814;37.460;2023-02-17T13:07:24;36.33;;;16.65;;
27213;SDS011;14723;55.814;37.460;2023-02-17T13:10:32;39.00;;;16.55;;
27213;SDS011;14723;55.814;37.460;2023-02-17T13:13:38;36.42;;;15.73;;
27213;SDS011;14723;55.814;37.460;2023-02-17T13:16:46;32.60;;;15.73;;
27213;SDS011;14723;55.814;37.460;2023-02-17T13:23:12;30.83;;;15.25;;
27213;SDS011;14723;55.814;37.460;2023-02-17T13:29:33;32.47;;;14.40;;
27213;SDS011;14723;55.814;37.460;2023-02-17T13:32:41;33.78;;;15.10;;
27213;SDS011;14723;55.814;37.460;2023-02-17T13:35:47;28.85;;;14.32;;
27213;SDS011;14723;55.814;37.460;2023-02-17T13:38:53;28.75;;;14.43;;
27213;SDS011;14723;55.814;37.460;2023-02-17T13:42:02;29.70;;;14.50;;
27213;SDS011;14723;55.814;37.460;2023-02-17T13:45:12;30.17;;;13.52;;
27213;SDS011;14723;55.814;37.460;2023-02-17T13:48:24;36.13;;;16.90;;
27213;SDS011;14723;55.814;37.460;2023-02-17T13:51:31;33.53;;;15.00;;
27213;SDS011;14723;55.814;37.460;2023-02-17T13:54:37;30.05;;;14.30;;
27213;SDS011;14723;55.814;37.460;2023-02-17T13:57:44;32.00;;;15.57;;
27213;SDS011;14723;55.814;37.460;2023-02-17T14:00:50;33.33;;;15.80;;
27213;SDS011;14723;55.814;37.460;2023-02-17T14:03:59;33.60;;;15.25;;
27213;SDS011;14723;55.814;37.460;2023-02-17T14:07:06;37.83;;;16.35;;
27213;SDS011;14723;55.814;37.460;2023-02-17T14:13:20;31.88;;;15.35;;
27213;SDS011;14723;55.814;37.460;2023-02-17T14:16:28;36.65;;;16.48;;
27213;SDS011;14723;55.814;37.460;2023-02-17T14:19:44;30.25;;;15.55;;
27213;SDS011;14723;55.814;37.460;2023-02-17T14:22:57;34.88;;;16.55;;
27213;SDS011;14723;55.814;37.460;2023-02-17T14:26:08;30.00;;;15.20;;
27213;SDS011;14723;55.814;37.460;2023-02-17T14:29:13;27.98;;;13.60;;
27213;SDS011;14723;55.814;37.460;2023-02-17T14:32:25;30.92;;;13.68;;
27213;SDS011;14723;55.814;37.460;2023-02-17T14:35:34;34.20;;;14.73;;
27213;SDS011;14723;55.814;37.460;2023-02-17T14:38:40;29.40;;;14.18;;
27213;SDS011;14723;55.814;37.460;2023-02-17T14:41:46;29.67;;;14.32;;
27213;SDS011;14723;55.814;37.460;2023-02-17T14:44:52;33.63;;;14.93;;
27213;SDS011;14723;55.814;37.460;2023-02-17T14:47:57;26.27;;;12.48;;
27213;SDS011;14723;55.814;37.460;2023-02-17T14:51:08;28.92;;;13.77;;
27213;SDS011;14723;55.814;37.460;2023-02-17T14:54:15;28.95;;;12.90;;
27213;SDS011;14723;55.814;37.460;2023-02-17T14:57:22;24.58;;;13.27;;
27213;SDS011;14723;55.814;37.460;2023-02-17T15:00:30;28.50;;;14.57;;
27213;SDS011;14723;55.814;37.460;2023-02-17T15:03:35;29.30;;;13.73;;
27213;SDS011;14723;55.814;37.460;2023-02-17T15:06:43;29.45;;;14.20;;
27213;SDS011;14723;55.814;37.460;2023-02-17T15:09:51;29.55;;;13.55;;
27213;SDS011;14723;55.814;37.460;2023-02-17T15:12:57;31.63;;;15.07;;
27213;SDS011;14723;55.814;37.460;2023-02-17T15:16:02;30.15;;;14.02;;
27213;SDS011;14723;55.814;37.460;2023-02-17T15:19:10;27.92;;;13.05;;
27213;SDS011;14723;55.814;37.460;2023-02-17T15:22:19;31.95;;;14.05;;
27213;SDS011;14723;55.814;37.460;2023-02-17T15:25:34;30.65;;;13.80;;
27213;SDS011;14723;55.814;37.460;2023-02-17T15:28:39;29.17;;;14.57;;
27213;SDS011;14723;55.814;37.460;2023-02-17T15:31:45;32.72;;;14.13;;
27213;SDS011;14723;55.814;37.460;2023-02-17T15:34:51;27.58;;;11.82;;
27213;SDS011;14723;55.814;37.460;2023-02-17T15:37:59;26.83;;;12.77;;
27213;SDS011;14723;55.814;37.460;2023-02-17T15:41:04;29.70;;;13.18;;
27213;SDS011;14723;55.814;37.460;2023-02-17T15:44:15;30.38;;;12.90;;
27213;SDS011;14723;55.814;37.460;2023-02-17T15:47:21;28.98;;;12.75;;
27213;SDS011;14723;55.814;37.460;2023-02-17T15:50:28;25.13;;;12.40;;
27213;SDS011;14723;55.814;37.460;2023-02-17T15:53:36;24.40;;;12.32;;
27213;SDS011;14723;55.814;37.460;2023-02-17T15:56:42;26.35;;;12.35;;
27213;SDS011;14723;55.814;37.460;2023-02-17T15:59:49;23.50;;;10.77;;
27213;SDS011;14723;55.814;37.460;2023-02-17T16:02:56;25.58;;;11.95;;
27213;SDS011;14723;55.814;37.460;2023-02-17T16:06:02;24.10;;;11.48;;
27213;SDS011;14723;55.814;37.460;2023-02-17T16:09:10;29.05;;;12.98;;
27213;SDS011;14723;55.814;37.460;2023-02-17T16:12:16;25.45;;;11.55;;
27213;SDS011;14723;55.814;37.460;2023-02-17T16:15:29;23.45;;;11.27;;
27213;SDS011;14723;55.814;37.460;2023-02-17T16:18:35;23.52;;;11.70;;
27213;SDS011;14723;55.814;37.460;2023-02-17T16:21:40;26.85;;;12.15;;
27213;SDS011;14723;55.814;37.460;2023-02-17T16:24:48;27.48;;;12.10;;
27213;SDS011;14723;55.814;37.460;2023-02-17T16:27:54;27.33;;;11.48;;
27213;SDS011;14723;55.814;37.460;2023-02-17T16:31:00;29.75;;;13.27;;
27213;SDS011;14723;55.814;37.460;2023-02-17T16:34:05;26.45;;;12.07;;
27213;SDS011;14723;55.814;37.460;2023-02-17T16:37:12;27.73;;;12.27;;
27213;SDS011;14723;55.814;37.460;2023-02-17T16:40:21;25.95;;;12.45;;
27213;SDS011;14723;55.814;37.460;2023-02-17T16:43:27;28.50;;;12.80;;
27213;SDS011;14723;55.814;37.460;2023-02-17T16:46:33;29.35;;;12.93;;
27213;SDS011;14723;55.814;37.460;2023-02-17T16:49:40;25.90;;;12.48;;
27213;SDS011;14723;55.814;37.460;2023-02-17T16:52:48;29.13;;;12.82;;
27213;SDS011;14723;55.814;37.460;2023-02-17T16:55:56;29.35;;;12.40;;
27213;SDS011;14723;55.814;37.460;2023-02-17T16:59:01;30.23;;;13.40;;
27213;SDS011;14723;55.814;37.460;2023-02-17T17:02:07;30.02;;;13.15;;
27213;SDS011;14723;55.814;37.460;2023-02-17T17:05:15;31.55;;;12.82;;
27213;SDS011;14723;55.814;37.460;2023-02-17T17:08:20;29.52;;;12.73;;
27213;SDS011;14723;55.814;37.460;2023-02-17T17:11:29;32.13;;;13.05;;
27213;SDS011;14723;55.814;37.460;2023-02-17T17:14:34;28.17;;;11.73;;
27213;SDS011;14723;55.814;37.460;2023-02-17T17:17:41;28.80;;;13.23;;
27213;SDS011;14723;55.814;37.460;2023-02-17T17:20:47;32.95;;;13.27;;
27213;SDS011;14723;55.814;37.460;2023-02-17T17:23:53;31.95;;;14.18;;
27213;SDS011;14723;55.814;37.460;2023-02-17T17:27:01;31.17;;;14.27;;
27213;SDS011;14723;55.814;37.460;2023-02-17T17:33:12;32.97;;;13.00;;
27213;SDS011;14723;55.814;37.460;2023-02-17T17:36:19;31.58;;;13.38;;
27213;SDS011;14723;55.814;37.460;2023-02-17T17:39:26;32.55;;;13.00;;
27213;SDS011;14723;55.814;37.460;2023-02-17T17:42:34;26.25;;;12.07;;
27213;SDS011;14723;55.814;37.460;2023-02-17T17:48:44;34.53;;;12.85;;
27213;SDS011;14723;55.814;37.460;2023-02-17T17:51:50;29.17;;;12.07;;
27213;SDS011;14723;55.814;37.460;2023-02-17T17:54:55;26.27;;;11.27;;
27213;SDS011;14723;55.814;37.460;2023-02-17T17:58:04;24.15;;;12.40;;
27213;SDS011;14723;55.814;37.460;2023-02-17T18:01:09;25.08;;;12.60;;
27213;SDS011;14723;55.814;37.460;2023-02-17T18:04:15;30.15;;;13.02;;
27213;SDS011;14723;55.814;37.460;2023-02-17T18:07:20;26.27;;;12.35;;
27213;SDS011;14723;55.814;37.460;2023-02-17T18:10:26;25.55;;;11.88;;
27213;SDS011;14723;55.814;37.460;2023-02-17T18:13:34;29.02;;;12.75;;
27213;SDS011;14723;55.814;37.460;2023-02-17T18:16:41;28.33;;;13.27;;
27213;SDS011;14723;55.814;37.460;2023-02-17T18:19:47;26.95;;;12.35;;
27213;SDS011;14723;55.814;37.460;2023-02-17T18:26:00;31.58;;;12.93;;
27213;SDS011;14723;55.814;37.460;2023-02-17T18:29:09;27.35;;;12.00;;
27213;SDS011;14723;55.814;37.460;2023-02-17T18:32:15;29.88;;;11.75;;
27213;SDS011;14723;55.814;37.460;2023-02-17T18:35:23;31.83;;;12.93;;
27213;SDS011;14723;55.814;37.460;2023-02-17T18:38:28;30.15;;;12.93;;
27213;SDS011;14723;55.814;37.460;2023-02-17T18:41:34;33.53;;;14.23;;
27213;SDS011;14723;55.814;37.460;2023-02-17T18:44:42;30.50;;;13.05;;
27213;SDS011;14723;55.814;37.460;2023-02-17T18:47:47;31.95;;;13.52;;
27213;SDS011;14723;55.814;37.460;2023-02-17T18:50:53;32.63;;;13.65;;